Time;durP1;ratioP1;P1;durP2;ratioP2;P2;SDS_P1;SDS_P2;PMS_P1;PMS_P2;Temp;Humidity;BMP_temperature;BMP_pressure;BME280_temperature;BME280_humidity;BME280_pressure;Samples;Min_cycle;Max_cycle;Signal;HPM_P1;HPM_P2
2022/06/08 00:01:42;;;;;;;6.47;1.90;;;14.20;99.90;;;;;;5020652;28;20037;-73
2022/06/08 00:04:10;;;;;;;8.68;1.85;;;14.20;99.90;;;;;;5022914;28;20029;-73
2022/06/08 00:06:36;;;;;;;5.88;1.90;;;14.30;99.90;;;;;;5012140;28;20029;-73
2022/06/08 00:09:02;;;;;;;5.55;1.50;;;14.20;99.90;;;;;;5022948;28;20040;-73
2022/06/08 00:11:27;;;;;;;8.55;2.25;;;14.30;99.90;;;;;;5014080;28;20049;-72
2022/06/08 00:13:53;;;;;;;9.40;2.58;;;14.30;99.90;;;;;;5018589;28;20045;-73
2022/06/08 00:16:19;;;;;;;9.40;2.55;;;14.30;99.90;;;;;;5012463;28;20025;-72
2022/06/08 00:18:45;;;;;;;11.27;3.10;;;14.30;99.90;;;;;;5006964;28;20025;-73
2022/06/08 00:21:13;;;;;;;11.85;2.70;;;14.30;99.90;;;;;;5023113;28;20538;-72
2022/06/08 00:23:39;;;;;;;8.80;3.35;;;14.40;99.90;;;;;;5013268;28;20045;-72
2022/06/08 00:26:05;;;;;;;9.15;3.20;;;14.30;99.90;;;;;;5020775;28;20041;-73
2022/06/08 00:28:32;;;;;;;5.32;2.88;;;14.40;99.90;;;;;;5021504;28;20060;-73
2022/06/08 00:30:58;;;;;;;8.57;3.25;;;14.40;99.90;;;;;;5031203;28;20045;-72
2022/06/08 00:33:24;;;;;;;11.45;3.17;;;14.40;99.90;;;;;;5023928;28;20038;-73
2022/06/08 00:35:50;;;;;;;10.75;3.72;;;14.40;99.90;;;;;;5025134;28;20249;-73
2022/06/08 00:38:16;;;;;;;12.43;3.60;;;14.40;99.90;;;;;;5025381;28;20059;-73
2022/06/08 00:41:00;;;;;;;8.02;3.30;;;14.40;99.90;;;;;;5026625;28;20116;-74
2022/06/08 00:43:26;;;;;;;8.18;3.63;;;14.40;99.90;;;;;;5000851;28;20564;-74
2022/06/08 00:45:52;;;;;;;5.03;3.20;;;14.40;99.90;;;;;;5021639;28;20060;-72
2022/06/08 00:48:18;;;;;;;6.85;3.15;;;14.40;99.90;;;;;;5018066;28;20025;-72
2022/06/08 00:50:48;;;;;;;7.35;3.42;;;14.40;99.90;;;;;;5024862;28;20517;-73
2022/06/08 00:53:17;;;;;;;6.10;3.50;;;14.40;99.90;;;;;;5021389;28;20025;-74
2022/06/08 00:55:44;;;;;;;7.55;3.40;;;14.30;99.90;;;;;;5026314;28;20045;-73
2022/06/08 00:58:23;;;;;;;5.80;2.88;;;14.30;99.90;;;;;;5007883;28;20028;-72
2022/06/08 01:00:50;;;;;;;6.63;3.00;;;14.40;99.90;;;;;;5016264;28;20893;-73
2022/06/08 01:03:15;;;;;;;3.78;2.47;;;14.30;99.90;;;;;;5009001;28;20171;-72
2022/06/08 01:05:46;;;;;;;3.05;2.63;;;14.30;99.90;;;;;;5020887;28;20575;-71
2022/06/08 01:08:51;;;;;;;4.25;2.33;;;14.40;99.90;;;;;;5010154;28;20040;-70
2022/06/08 01:11:40;;;;;;;3.97;1.98;;;14.40;99.90;;;;;;5021741;28;20029;-73
2022/06/08 01:14:10;;;;;;;3.40;1.98;;;14.40;99.90;;;;;;5022123;28;20485;-71
2022/06/08 01:16:39;;;;;;;5.35;2.30;;;14.40;99.90;;;;;;5011796;28;20068;-72
2022/06/08 01:19:07;;;;;;;5.15;2.00;;;14.40;99.90;;;;;;5002296;28;20760;-72
2022/06/08 01:21:33;;;;;;;5.15;1.90;;;14.40;99.90;;;;;;5014051;28;20786;-72
2022/06/08 01:24:02;;;;;;;6.22;1.95;;;14.50;99.90;;;;;;5026507;28;20115;-72
2022/06/08 01:26:39;;;;;;;2.50;2.20;;;14.50;99.90;;;;;;5027041;28;20029;-73
2022/06/08 01:29:34;;;;;;;3.47;2.50;;;14.40;99.90;;;;;;5008162;28;20026;-72
2022/06/08 01:32:35;;;;;;;3.42;2.60;;;14.40;99.90;;;;;;5018216;28;20044;-72
2022/06/08 01:35:19;;;;;;;;;;;14.50;99.90;;;;;;5004238;28;20041;-72
2022/06/08 01:37:48;;;;;;;2.75;1.30;;;14.50;99.90;;;;;;5014886;28;19912;-73
2022/06/08 01:40:35;;;;;;;2.40;1.17;;;14.50;99.90;;;;;;5018097;28;20140;-74
2022/06/08 01:43:14;;;;;;;1.55;1.10;;;14.50;99.90;;;;;;5013355;28;20034;-73
2022/06/08 01:46:12;;;;;;;6.85;1.55;;;14.50;99.90;;;;;;5016032;28;20039;-73
2022/06/08 01:49:04;;;;;;;3.72;1.40;;;14.50;99.90;;;;;;5014695;28;20044;-73
2022/06/08 01:51:51;;;;;;;3.35;1.60;;;14.50;99.90;;;;;;5011849;28;20025;-73
2022/06/08 01:54:44;;;;;;;3.13;1.13;;;14.50;99.90;;;;;;5010879;28;20041;-73
2022/06/08 01:57:45;;;;;;;4.47;1.23;;;14.50;99.90;;;;;;5014509;28;20647;-74
2022/06/08 02:00:13;;;;;;;2.95;1.08;;;14.50;99.90;;;;;;4988932;28;20054;-73
2022/06/08 02:02:57;;;;;;;2.65;1.40;;;14.50;99.90;;;;;;5019901;28;20025;-73
2022/06/08 02:05:31;;;;;;;2.40;1.20;;;14.60;99.90;;;;;;5012986;28;20536;-73
2022/06/08 02:08:22;;;;;;;1.35;1.20;;;14.60;99.90;;;;;;5012526;28;20034;-72
2022/06/08 02:11:11;;;;;;;2.30;1.27;;;14.50;99.90;;;;;;5019314;28;20128;-73
2022/06/08 02:13:40;;;;;;;1.55;0.77;;;14.60;99.90;;;;;;5020199;28;20050;-73
2022/06/08 02:16:44;;;;;;;9.73;1.30;;;14.60;99.90;;;;;;5015066;28;20057;-73
2022/06/08 02:19:13;;;;;;;3.67;1.15;;;14.60;99.90;;;;;;5021195;28;20052;-72
2022/06/08 02:21:56;;;;;;;2.08;1.25;;;14.60;99.90;;;;;;5016518;28;20045;-73
2022/06/08 02:24:29;;;;;;;1.63;1.45;;;14.60;99.90;;;;;;5024755;28;20040;-73
2022/06/08 02:27:02;;;;;;;3.65;1.50;;;14.60;99.90;;;;;;5028858;28;20041;-72
2022/06/08 02:29:47;;;;;;;4.50;1.92;;;14.70;99.90;;;;;;5016988;28;20026;-72
2022/06/08 02:35:11;;;;;;;3.58;1.67;;;14.60;99.90;;;;;;5027650;28;20071;-72
2022/06/08 02:37:38;;;;;;;3.40;1.65;;;14.70;99.90;;;;;;5022894;28;20061;-72
2022/06/08 02:40:17;;;;;;;5.43;1.70;;;14.60;99.90;;;;;;5026547;28;20096;-72
2022/06/08 02:42:48;;;;;;;5.55;2.65;;;14.70;99.90;;;;;;5018995;28;20057;-73
2022/06/08 02:45:20;;;;;;;4.18;1.85;;;14.60;99.90;;;;;;5018247;28;20025;-73
2022/06/08 02:47:50;;;;;;;5.00;1.88;;;14.70;99.90;;;;;;5018408;28;20428;-73
2022/06/08 02:50:25;;;;;;;3.08;1.92;;;14.70;99.90;;;;;;5016294;28;20034;-72
2022/06/08 02:53:01;;;;;;;10.25;2.25;;;14.70;99.90;;;;;;5022807;28;20828;-72
2022/06/08 02:55:47;;;;;;;4.88;2.03;;;14.70;99.90;;;;;;5027831;28;20125;-72
2022/06/08 02:58:21;;;;;;;5.82;2.67;;;14.70;99.90;;;;;;5017709;28;20046;-73
2022/06/08 03:00:58;;;;;;;4.70;2.50;;;14.70;99.90;;;;;;5024371;28;20500;-72
2022/06/08 03:03:33;;;;;;;4.95;2.25;;;14.70;99.90;;;;;;5009167;28;20029;-71
2022/06/08 03:06:11;;;;;;;5.03;2.22;;;14.70;99.90;;;;;;5013593;28;20091;-73
2022/06/08 03:08:53;;;;;;;5.60;2.28;;;14.70;99.90;;;;;;5010928;28;20425;-72
2022/06/08 03:11:19;;;;;;;5.47;2.53;;;14.70;99.90;;;;;;5009271;28;20021;-72
2022/06/08 03:13:51;;;;;;;5.72;2.47;;;14.70;99.90;;;;;;5017029;28;21234;-73
2022/06/08 03:16:56;;;;;;;4.80;2.30;;;14.70;99.90;;;;;;5019106;28;20473;-72
2022/06/08 03:19:23;;;;;;;8.80;2.08;;;14.70;99.90;;;;;;5017007;28;20484;-71
2022/06/08 03:21:49;;;;;;;6.00;1.40;;;14.70;99.90;;;;;;5013992;28;20065;-72
2022/06/08 03:24:16;;;;;;;4.97;1.42;;;14.70;99.90;;;;;;5024940;28;20061;-73
2022/06/08 03:26:45;;;;;;;3.85;1.63;;;14.70;99.90;;;;;;5021271;28;20026;-72
2022/06/08 03:29:11;;;;;;;2.28;0.95;;;14.70;99.90;;;;;;5023565;28;20504;-72
2022/06/08 03:31:37;;;;;;;3.08;1.60;;;14.70;99.90;;;;;;5012110;28;20041;-71
2022/06/08 03:34:03;;;;;;;2.08;1.45;;;14.70;99.90;;;;;;5025346;28;20068;-72
2022/06/08 03:36:28;;;;;;;2.47;1.02;;;14.70;99.90;;;;;;5015705;28;20025;-71
2022/06/08 03:38:54;;;;;;;1.00;0.90;;;14.70;99.90;;;;;;5024122;28;20372;-71
2022/06/08 03:41:20;;;;;;;2.70;0.75;;;14.70;99.90;;;;;;5018520;28;20302;-70
2022/06/08 03:43:45;;;;;;;1.00;0.90;;;14.70;99.90;;;;;;5014199;28;20064;-72
2022/06/08 03:46:11;;;;;;;4.97;0.75;;;14.70;99.90;;;;;;5017500;28;20119;-72
2022/06/08 03:48:40;;;;;;;2.03;0.65;;;14.70;99.90;;;;;;5031800;28;20064;-72
2022/06/08 03:51:07;;;;;;;1.35;0.80;;;14.70;99.90;;;;;;5018607;28;20086;-71
2022/06/08 03:53:43;;;;;;;1.25;0.60;;;14.80;99.90;;;;;;5018045;28;20087;-72
2022/06/08 03:56:11;;;;;;;2.77;0.83;;;14.70;99.90;;;;;;5032686;28;20247;-72
2022/06/08 03:58:37;;;;;;;0.65;0.65;;;14.80;99.90;;;;;;5030211;28;20504;-72
2022/06/08 04:01:03;;;;;;;4.68;0.70;;;14.80;99.90;;;;;;5006181;28;20029;-72
2022/06/08 04:03:30;;;;;;;3.05;0.60;;;14.80;99.90;;;;;;5023811;28;20033;-71
2022/06/08 04:05:58;;;;;;;2.22;1.00;;;14.70;99.90;;;;;;5019254;28;20025;-72
2022/06/08 04:08:24;;;;;;;3.08;1.10;;;14.80;99.90;;;;;;5006580;28;20046;-71
2022/06/08 04:10:51;;;;;;;1.47;1.13;;;14.80;99.90;;;;;;5019843;28;20045;-71
2022/06/08 04:13:17;;;;;;;3.25;1.45;;;14.80;99.90;;;;;;5023066;28;20237;-70
2022/06/08 04:15:42;;;;;;;4.85;1.90;;;14.80;99.90;;;;;;5010963;28;20033;-72
2022/06/08 04:18:10;;;;;;;7.50;2.30;;;14.80;99.90;;;;;;5006798;28;20034;-72
2022/06/08 04:20:37;;;;;;;2.58;2.15;;;14.90;99.90;;;;;;5026592;28;20552;-72
2022/06/08 04:23:04;;;;;;;8.30;2.60;;;14.90;99.90;;;;;;5021744;28;20489;-72
2022/06/08 04:25:30;;;;;;;9.80;3.42;;;14.90;99.90;;;;;;5005684;28;20634;-72
2022/06/08 04:27:56;;;;;;;10.45;4.20;;;14.90;99.90;;;;;;5018184;28;20048;-71
2022/06/08 04:30:22;;;;;;;10.90;4.43;;;14.90;99.90;;;;;;5034207;28;20220;-72
2022/06/08 04:32:48;;;;;;;14.48;4.97;;;14.90;99.90;;;;;;5031314;28;20044;-72
2022/06/08 04:35:15;;;;;;;15.43;6.05;;;14.90;99.90;;;;;;5012196;28;20049;-73
2022/06/08 04:37:40;;;;;;;19.83;5.07;;;14.90;99.90;;;;;;5030507;28;20154;-72
2022/06/08 04:40:10;;;;;;;14.55;5.00;;;14.90;99.90;;;;;;5024829;28;20029;-71
2022/06/08 04:42:36;;;;;;;21.73;5.72;;;15.00;99.90;;;;;;5006789;28;20028;-72
2022/06/08 04:45:04;;;;;;;23.48;5.47;;;15.00;99.90;;;;;;5022755;28;20040;-71
2022/06/08 04:47:30;;;;;;;11.75;5.00;;;15.00;99.90;;;;;;5029918;28;20027;-71
2022/06/08 04:49:55;;;;;;;8.13;3.72;;;15.00;99.90;;;;;;5032582;28;20037;-72
2022/06/08 04:52:21;;;;;;;14.02;4.05;;;15.00;99.90;;;;;;5020276;28;20030;-71
2022/06/08 04:54:47;;;;;;;14.13;4.28;;;15.00;99.90;;;;;;5032819;28;20043;-72
2022/06/08 04:57:13;;;;;;;11.10;4.00;;;15.00;99.90;;;;;;5006944;28;20033;-71
2022/06/08 04:59:40;;;;;;;14.25;4.63;;;15.00;99.90;;;;;;5032874;28;20033;-71
2022/06/08 05:02:07;;;;;;;6.00;3.07;;;15.00;99.90;;;;;;5013281;28;20037;-73
2022/06/08 05:04:33;;;;;;;9.70;3.83;;;15.10;99.90;;;;;;5028356;28;20103;-72
2022/06/08 05:06:58;;;;;;;8.27;3.77;;;15.10;99.90;;;;;;5014961;28;20489;-72
2022/06/08 05:09:24;;;;;;;8.95;3.58;;;15.20;99.90;;;;;;5015858;28;20043;-72
2022/06/08 05:11:50;;;;;;;9.20;3.80;;;15.20;99.90;;;;;;5015960;28;20083;-72
2022/06/08 05:14:16;;;;;;;10.52;3.75;;;15.20;99.90;;;;;;5036838;28;20080;-72
2022/06/08 05:16:41;;;;;;;9.25;3.80;;;15.20;99.90;;;;;;5019144;28;20167;-72
2022/06/08 05:19:07;;;;;;;12.45;4.15;;;15.30;99.90;;;;;;5019900;28;20053;-73
2022/06/08 05:21:33;;;;;;;7.60;3.67;;;15.30;99.90;;;;;;5011010;28;20646;-72
2022/06/08 05:23:59;;;;;;;9.25;3.92;;;15.30;99.90;;;;;;5021937;28;20069;-71
2022/06/08 05:26:24;;;;;;;8.90;4.13;;;15.30;99.90;;;;;;5019842;28;20505;-72
2022/06/08 05:28:50;;;;;;;15.27;5.07;;;15.30;99.90;;;;;;5023824;28;20041;-73
2022/06/08 05:31:16;;;;;;;15.50;5.38;;;15.30;99.90;;;;;;5007340;28;20033;-72
2022/06/08 05:33:43;;;;;;;11.40;6.32;;;15.30;99.90;;;;;;5013458;28;20029;-73
2022/06/08 05:36:09;;;;;;;11.73;6.10;;;15.30;99.90;;;;;;5001322;28;20451;-72
2022/06/08 05:38:34;;;;;;;12.38;5.28;;;15.30;99.90;;;;;;5020677;28;20305;-73
2022/06/08 05:41:00;;;;;;;28.17;17.90;;;15.40;99.90;;;;;;5015048;28;20139;-72
2022/06/08 05:43:26;;;;;;;15.07;7.32;;;15.40;99.90;;;;;;5019949;28;20032;-73
2022/06/08 05:45:52;;;;;;;13.68;5.65;;;15.50;99.90;;;;;;5013958;28;20030;-73
2022/06/08 05:48:18;;;;;;;13.15;6.30;;;15.50;99.90;;;;;;5006664;28;20025;-73
2022/06/08 05:50:45;;;;;;;16.17;6.80;;;15.60;99.90;;;;;;5010298;28;20524;-72
2022/06/08 05:53:11;;;;;;;12.18;5.00;;;15.60;99.90;;;;;;5014634;28;20033;-73
2022/06/08 05:55:37;;;;;;;15.77;5.40;;;15.60;99.90;;;;;;5018941;28;20145;-72
2022/06/08 05:58:04;;;;;;;21.75;8.18;;;15.60;99.90;;;;;;5022676;28;20025;-72
2022/06/08 06:00:33;;;;;;;14.33;4.73;;;15.70;99.90;;;;;;5009091;28;20496;-73
2022/06/08 06:02:59;;;;;;;17.77;5.95;;;15.80;99.90;;;;;;4999125;28;20461;-72
2022/06/08 06:05:28;;;;;;;26.40;10.60;;;15.90;99.90;;;;;;4997063;28;20022;-73
2022/06/08 06:07:56;;;;;;;11.30;5.70;;;16.00;99.90;;;;;;4996729;28;20028;-72
2022/06/08 06:10:23;;;;;;;19.30;6.03;;;16.10;99.90;;;;;;4985333;28;20026;-72
2022/06/08 06:12:51;;;;;;;17.75;5.50;;;16.20;99.90;;;;;;5028189;28;20029;-73
2022/06/08 06:15:16;;;;;;;11.35;5.05;;;16.30;99.90;;;;;;5021684;28;20080;-72
2022/06/08 06:17:42;;;;;;;16.40;5.78;;;16.40;99.90;;;;;;5018637;28;20156;-72
2022/06/08 06:20:09;;;;;;;15.40;5.07;;;16.50;99.90;;;;;;5021652;28;20111;-72
2022/06/08 06:22:35;;;;;;;16.52;4.68;;;16.60;99.90;;;;;;4987551;28;20041;-72
2022/06/08 06:25:02;;;;;;;10.52;4.90;;;16.70;99.90;;;;;;5003432;28;20029;-73
2022/06/08 06:27:28;;;;;;;9.43;3.85;;;16.70;99.90;;;;;;4995039;28;20575;-73
2022/06/08 06:29:53;;;;;;;9.00;4.30;;;16.70;99.90;;;;;;5006164;28;20041;-72
2022/06/08 06:32:29;;;;;;;10.18;4.90;;;16.80;99.90;;;;;;5011153;28;20025;-73
2022/06/08 06:34:56;;;;;;;8.68;4.88;;;17.00;99.90;;;;;;5024416;28;20270;-71
2022/06/08 06:37:22;;;;;;;12.45;4.53;;;17.30;99.90;;;;;;5003951;28;20040;-72
2022/06/08 06:39:48;;;;;;;7.05;4.32;;;17.50;99.90;;;;;;5000637;28;20037;-72
2022/06/08 06:42:20;;;;;;;8.27;3.80;;;17.80;99.90;;;;;;5013778;28;20479;-73
2022/06/08 06:44:45;;;;;;;7.28;3.80;;;17.80;99.90;;;;;;4999965;28;20044;-72
2022/06/08 06:47:13;;;;;;;10.63;3.90;;;17.70;99.90;;;;;;4995641;28;20807;-72
2022/06/08 06:49:39;;;;;;;9.38;4.28;;;17.60;99.90;;;;;;4999841;28;20041;-71
2022/06/08 06:52:05;;;;;;;5.93;3.22;;;17.60;99.90;;;;;;5000919;28;20674;-71
2022/06/08 06:54:31;;;;;;;11.13;4.28;;;17.60;99.90;;;;;;5000634;28;20065;-70
2022/06/08 06:56:57;;;;;;;7.20;3.70;;;17.80;99.90;;;;;;5000680;28;20313;-71
2022/06/08 06:59:23;;;;;;;14.95;3.80;;;17.80;99.90;;;;;;5013885;28;20034;-71
2022/06/08 07:01:48;;;;;;;6.90;3.53;;;17.70;99.90;;;;;;5017992;28;20082;-71
2022/06/08 07:04:17;;;;;;;6.65;3.67;;;17.70;99.90;;;;;;5018306;28;20061;-71
2022/06/08 07:06:42;;;;;;;7.65;3.88;;;17.70;99.90;;;;;;4995464;28;20445;-71
2022/06/08 07:09:08;;;;;;;8.35;4.30;;;17.70;99.90;;;;;;4996859;28;20562;-73
2022/06/08 07:11:35;;;;;;;8.43;4.05;;;17.70;99.90;;;;;;4999950;28;20029;-71
2022/06/08 07:14:03;;;;;;;8.35;4.88;;;17.90;99.90;;;;;;5019682;28;20124;-71
2022/06/08 07:16:29;;;;;;;6.68;3.90;;;18.00;99.90;;;;;;5006577;28;20401;-71
2022/06/08 07:18:55;;;;;;;8.18;4.90;;;18.20;99.90;;;;;;4995829;28;20030;-72
2022/06/08 07:21:21;;;;;;;10.45;5.00;;;18.40;99.90;;;;;;4963512;28;20500;-72
2022/06/08 07:23:47;;;;;;;11.23;5.32;;;18.70;99.90;;;;;;4988153;28;20034;-72
2022/06/08 07:26:13;;;;;;;9.57;4.57;;;18.90;99.90;;;;;;4992010;28;20087;-71
2022/06/08 07:28:40;;;;;;;11.43;4.90;;;18.80;99.90;;;;;;4986944;28;20026;-72
2022/06/08 07:31:06;;;;;;;8.93;4.13;;;18.80;99.90;;;;;;4983126;28;20040;-72
2022/06/08 07:33:33;;;;;;;8.45;4.38;;;18.80;99.90;;;;;;4993731;28;20425;-72
2022/06/08 07:36:00;;;;;;;9.52;3.78;;;18.50;99.90;;;;;;4652793;28;10000585;-72
2022/06/08 07:38:26;;;;;;;8.10;3.72;;;18.40;99.90;;;;;;4996985;28;20688;-71
2022/06/08 07:40:52;;;;;;;8.70;4.20;;;18.40;99.90;;;;;;4998542;28;20525;-71
2022/06/08 07:43:19;;;;;;;8.18;3.20;;;18.40;99.90;;;;;;4997963;28;20040;-71
2022/06/08 07:45:45;;;;;;;9.40;2.83;;;19.00;99.90;;;;;;5001959;28;20472;-72
2022/06/08 07:50:55;;;;;;;7.55;2.85;;;20.60;99.90;;;;;;4997290;28;20567;-71
2022/06/08 07:53:21;;;;;;;6.38;2.08;;;23.90;99.90;;;;;;4981211;28;20034;-71
2022/06/08 07:55:46;;;;;;;6.78;2.78;;;27.10;94.30;;;;;;5000931;28;20076;-71
2022/06/08 07:58:12;;;;;;;6.68;2.03;;;25.70;93.10;;;;;;5017251;28;20384;-71
2022/06/08 08:00:38;;;;;;;5.93;2.85;;;25.80;95.00;;;;;;5004404;28;20481;-71
2022/06/08 08:03:04;;;;;;;6.50;2.08;;;25.00;99.80;;;;;;5026357;28;20033;-71
2022/06/08 08:05:30;;;;;;;4.78;2.00;;;25.60;93.70;;;;;;5015142;28;20579;-71
2022/06/08 08:07:56;;;;;;;4.57;1.50;;;24.70;97.50;;;;;;5024825;28;20065;-71
2022/06/08 08:10:25;;;;;;;5.93;1.80;;;23.10;99.90;;;;;;5026452;28;20207;-72
2022/06/08 08:12:51;;;;;;;2.38;1.40;;;21.90;99.90;;;;;;5023257;28;20674;-71
2022/06/08 08:15:18;;;;;;;5.82;1.30;;;21.00;99.90;;;;;;5014408;28;20037;-71
2022/06/08 08:17:44;;;;;;;6.13;1.27;;;24.70;99.90;;;;;;5013791;28;20511;-72
2022/06/08 08:20:13;;;;;;;2.90;0.80;;;27.90;86.70;;;;;;5000251;28;20753;-72
2022/06/08 08:22:39;;;;;;;3.97;0.57;;;29.90;68.10;;;;;;5007908;28;20049;-72
2022/06/08 08:25:06;;;;;;;2.45;1.00;;;27.50;65.00;;;;;;5021784;28;20041;-72
2022/06/08 08:27:31;;;;;;;2.85;0.77;;;28.60;69.10;;;;;;5012576;28;20621;-71
2022/06/08 08:29:57;;;;;;;2.83;0.70;;;29.10;59.80;;;;;;5014299;28;20675;-71
2022/06/08 08:32:22;;;;;;;3.38;0.65;;;29.40;59.00;;;;;;5010797;28;20075;-71
2022/06/08 08:34:48;;;;;;;8.55;2.45;;;28.90;65.90;;;;;;5018064;28;20610;-71
2022/06/08 08:37:14;;;;;;;4.97;0.75;;;30.50;62.20;;;;;;5032798;28;20032;-71
2022/06/08 08:39:40;;;;;;;1.35;0.68;;;31.90;53.30;;;;;;5027171;28;20047;-72
2022/06/08 08:42:21;;;;;;;1.00;0.50;;;32.20;47.30;;;;;;5021759;28;20137;-72
2022/06/08 08:44:50;;;;;;;;;;;33.50;46.40;;;;;;5032624;28;20035;-71
2022/06/08 08:47:40;;;;;;;3.50;0.57;;;33.70;43.90;;;;;;5034433;28;19999;-72
2022/06/08 08:50:14;;;;;;;3.55;0.50;;;35.30;42.80;;;;;;5020074;28;20043;-72
2022/06/08 08:53:03;;;;;;;1.50;0.60;;;36.00;41.90;;;;;;5026841;28;20614;-72
2022/06/08 08:55:46;;;;;;;1.95;0.60;;;36.60;39.20;;;;;;5020211;28;20502;-73
2022/06/08 08:58:14;;;;;;;3.83;0.47;;;34.90;36.70;;;;;;5026351;28;20029;-73
2022/06/08 09:00:51;;;;;;;2.80;0.95;;;34.90;40.70;;;;;;5016220;28;20105;-74
2022/06/08 09:03:20;;;;;;;1.92;0.68;;;32.40;38.20;;;;;;5022474;28;20018;-73
2022/06/08 09:05:48;;;;;;;4.70;0.68;;;31.10;44.10;;;;;;5009668;28;20079;-74
2022/06/08 09:08:17;;;;;;;2.80;0.75;;;28.60;49.20;;;;;;5020364;28;20029;-74
2022/06/08 09:10:43;;;;;;;2.58;0.65;;;26.50;58.80;;;;;;5018646;28;20030;-75
2022/06/08 09:13:21;;;;;;;1.45;0.47;;;27.30;68.10;;;;;;5020000;28;20026;-74
2022/06/08 09:15:54;;;;;;;1.52;0.60;;;28.90;60.20;;;;;;5021733;28;20061;-74
2022/06/08 09:18:31;;;;;;;2.22;0.35;;;30.80;50.50;;;;;;5008561;28;20503;-74
2022/06/08 09:20:58;;;;;;;1.92;0.30;;;31.70;53.00;;;;;;5021434;28;20049;-73
2022/06/08 09:23:40;;;;;;;1.67;0.60;;;29.70;47.40;;;;;;4995045;28;20500;-75
2022/06/08 09:26:28;;;;;;;1.33;0.30;;;28.20;51.30;;;;;;5003814;28;20524;-73
2022/06/08 09:29:08;;;;;;;3.75;0.73;;;28.00;56.70;;;;;;5005480;28;20038;-74
2022/06/08 09:31:36;;;;;;;2.45;0.65;;;26.40;60.70;;;;;;5000686;28;20117;-74
2022/06/08 09:34:04;;;;;;;2.83;0.47;;;24.60;73.80;;;;;;5012186;28;20263;-73
2022/06/08 09:36:30;;;;;;;4.55;0.70;;;25.10;73.30;;;;;;5040705;28;20033;-73
2022/06/08 09:38:57;;;;;;;3.45;0.30;;;25.50;71.10;;;;;;5040789;28;20106;-73
2022/06/08 09:41:34;;;;;;;1.88;0.60;;;24.90;78.00;;;;;;5008953;28;20503;-74
2022/06/08 09:44:26;;;;;;;0.85;0.40;;;24.10;90.60;;;;;;4681101;28;10000011;-74
2022/06/08 09:52:54;;;;;;;4.65;1.20;;;21.10;99.90;;;;;;5004470;28;20521;-74
2022/06/08 09:55:35;;;;;;;;;;;20.90;99.90;;;;;;5035152;28;20076;-73
2022/06/08 09:58:12;;;;;;;6.30;1.25;;;21.20;99.90;;;;;;5002530;28;19916;-74
2022/06/08 10:01:06;;;;;;;5.72;0.90;;;21.80;99.90;;;;;;5012849;28;20485;-75
2022/06/08 10:03:47;;;;;;;5.53;1.10;;;22.40;99.90;;;;;;5004948;28;20057;-74
2022/06/08 10:06:16;;;;;;;5.40;1.30;;;22.60;98.40;;;;;;5002482;28;20069;-75
2022/06/08 10:09:00;;;;;;;3.47;0.77;;;23.90;98.80;;;;;;5020673;28;20221;-73
2022/06/08 10:11:59;;;;;;;2.60;0.40;;;24.90;92.40;;;;;;5028841;28;20025;-74
2022/06/08 10:14:38;;;;;;;6.60;1.08;;;25.00;84.30;;;;;;5011017;28;20049;-73
2022/06/08 10:17:23;;;;;;;2.20;0.60;;;24.00;87.70;;;;;;5013578;28;20040;-74
2022/06/08 10:20:12;;;;;;;8.20;1.23;;;23.60;94.50;;;;;;5013883;28;20053;-73
2022/06/08 10:22:45;;;;;;;6.18;0.80;;;23.20;98.90;;;;;;5010842;28;20497;-75
2022/06/08 10:25:46;;;;;;;10.02;1.20;;;23.30;99.90;;;;;;5007579;28;20030;-75
2022/06/08 10:28:43;;;;;;;6.15;0.90;;;23.00;96.60;;;;;;5007709;28;20041;-74
2022/06/08 10:31:49;;;;;;;8.15;1.20;;;22.80;99.00;;;;;;4994996;28;20081;-72
2022/06/08 10:34:24;;;;;;;7.85;1.40;;;22.50;99.90;;;;;;5006860;28;20064;-73
2022/06/08 10:36:54;;;;;;;9.32;1.80;;;22.60;99.90;;;;;;5003155;28;20030;-72
2022/06/08 10:39:22;;;;;;;8.63;1.20;;;22.80;99.90;;;;;;5007561;28;20094;-72
2022/06/08 10:44:59;;;;;;;8.10;1.70;;;25.30;97.00;;;;;;5008378;28;20045;-73
2022/06/08 10:47:34;;;;;;;7.95;2.33;;;25.60;91.90;;;;;;5004927;28;20124;-72
2022/06/08 10:50:00;;;;;;;6.90;1.40;;;24.70;90.00;;;;;;4982935;28;20025;-73
2022/06/08 10:52:46;;;;;;;11.13;1.60;;;23.90;94.80;;;;;;5008009;28;20033;-73
2022/06/08 10:55:18;;;;;;;8.40;1.67;;;22.50;97.90;;;;;;5011104;28;20049;-79
2022/06/08 10:58:01;;;;;;;11.25;2.28;;;21.80;99.90;;;;;;4979830;28;20536;-73
2022/06/08 11:00:52;;;;;;;8.32;1.52;;;21.70;99.90;;;;;;5001420;28;20065;-72
2022/06/08 11:03:33;;;;;;;17.17;2.47;;;21.70;99.90;;;;;;5011463;28;20445;-73
2022/06/08 11:05:59;;;;;;;12.95;1.65;;;22.30;99.90;;;;;;4667782;28;10001039;-72
2022/06/08 11:08:44;;;;;;;9.98;1.65;;;23.80;99.40;;;;;;5013585;28;20056;-71
2022/06/08 11:11:09;;;;;;;9.07;2.10;;;24.50;99.90;;;;;;4995797;28;20025;-72
2022/06/08 11:13:49;;;;;;;11.88;1.95;;;25.80;97.10;;;;;;5009170;28;20039;-72
2022/06/08 11:16:26;;;;;;;15.23;2.03;;;25.80;92.50;;;;;;5005886;28;20033;-74
2022/06/08 11:19:10;;;;;;;9.65;2.42;;;24.60;93.60;;;;;;5013906;28;20048;-74
2022/06/08 11:21:57;;;;;;;13.55;2.67;;;23.80;99.90;;;;;;5015946;28;20052;-73
2022/06/08 11:24:37;;;;;;;16.60;2.53;;;22.90;99.40;;;;;;5005186;28;20113;-73
2022/06/08 11:27:09;;;;;;;13.80;2.97;;;22.50;99.90;;;;;;5008746;28;20041;-73
2022/06/08 11:29:36;;;;;;;15.38;2.67;;;22.30;99.90;;;;;;5014053;28;20029;-73
2022/06/08 11:32:02;;;;;;;12.85;3.22;;;23.20;99.90;;;;;;5016489;28;20112;-73
2022/06/08 11:34:44;;;;;;;11.30;1.70;;;24.60;99.90;;;;;;5017557;28;20484;-72
2022/06/08 11:37:42;;;;;;;12.95;2.95;;;25.50;99.90;;;;;;5015182;28;20051;-73
2022/06/08 11:40:25;;;;;;;11.18;2.58;;;25.70;99.90;;;;;;4986203;28;20041;-74
2022/06/08 11:43:00;;;;;;;12.48;2.22;;;25.20;93.60;;;;;;5019050;28;20017;-75
2022/06/08 11:45:42;;;;;;;15.07;2.88;;;25.10;96.20;;;;;;5018938;28;20037;-74
2022/06/08 11:48:26;;;;;;;15.10;2.17;;;25.00;98.30;;;;;;5006697;28;20464;-74
2022/06/08 11:50:56;;;;;;;10.70;1.80;;;25.20;99.90;;;;;;5005883;28;20045;-73
2022/06/08 11:53:27;;;;;;;9.17;1.77;;;25.80;99.80;;;;;;5000266;28;20120;-73
2022/06/08 11:56:21;;;;;;;7.05;1.05;;;25.80;92.30;;;;;;5008685;28;20045;-73
2022/06/08 11:58:56;;;;;;;9.48;1.65;;;25.90;95.50;;;;;;5008175;28;20481;-73
2022/06/08 12:01:25;;;;;;;11.43;1.80;;;25.20;89.90;;;;;;5015394;28;20041;-74
2022/06/08 12:03:57;;;;;;;7.78;1.42;;;25.50;99.90;;;;;;4986057;28;20368;-73
2022/06/08 12:06:29;;;;;;;9.15;2.58;;;25.20;90.10;;;;;;5010355;28;20033;-73
2022/06/08 12:09:05;;;;;;;14.48;1.88;;;24.80;95.50;;;;;;5001447;28;20042;-76
2022/06/08 12:11:33;;;;;;;12.85;2.33;;;25.00;97.20;;;;;;5008501;28;20461;-72
2022/06/08 12:14:20;;;;;;;9.93;2.17;;;25.30;99.90;;;;;;5004544;28;20497;-74
2022/06/08 12:17:23;;;;;;;12.63;2.28;;;25.60;93.20;;;;;;5010714;28;20492;-73
2022/06/08 12:19:55;;;;;;;11.10;2.08;;;25.50;97.00;;;;;;5006846;28;20114;-75
2022/06/08 12:22:22;;;;;;;12.85;2.55;;;24.90;97.20;;;;;;4989380;28;20025;-73
2022/06/08 12:25:09;;;;;;;13.13;2.17;;;24.10;99.90;;;;;;5009788;28;20564;-74
2022/06/08 12:27:51;;;;;;;13.82;2.55;;;22.70;99.90;;;;;;5009210;28;20496;-72
2022/06/08 12:30:23;;;;;;;11.40;2.30;;;21.80;99.90;;;;;;5009767;28;20077;-70
2022/06/08 12:32:59;;;;;;;10.27;2.17;;;20.50;99.90;;;;;;5014548;28;20037;-71
2022/06/08 12:35:38;;;;;;;9.75;1.83;;;19.60;99.90;;;;;;5010966;28;20038;-71
2022/06/08 12:38:22;;;;;;;9.45;2.30;;;19.40;99.90;;;;;;5017435;28;20088;-71
2022/06/08 12:41:11;;;;;;;9.52;1.52;;;19.70;99.90;;;;;;5007896;28;20065;-71
2022/06/08 12:43:46;;;;;;;6.57;1.33;;;20.50;99.90;;;;;;5014296;28;20025;-70
2022/06/08 12:46:46;;;;;;;6.97;1.23;;;21.60;99.90;;;;;;5014930;28;20108;-69
2022/06/08 12:49:15;;;;;;;4.32;1.08;;;22.70;99.90;;;;;;5014803;28;20038;-69
2022/06/08 12:51:55;;;;;;;5.35;0.77;;;23.10;99.90;;;;;;5008550;28;20083;-69
2022/06/08 12:54:23;;;;;;;3.92;1.08;;;24.00;99.90;;;;;;5009608;28;20087;-69
2022/06/08 12:56:52;;;;;;;3.30;0.88;;;24.30;99.90;;;;;;5019024;28;20025;-69
2022/06/08 12:59:19;;;;;;;1.83;0.70;;;24.70;99.90;;;;;;5005904;28;20648;-69
2022/06/08 13:01:45;;;;;;;3.20;0.90;;;24.70;99.90;;;;;;5016808;28;20033;-70
2022/06/08 13:04:14;;;;;;;5.53;0.70;;;24.40;99.90;;;;;;5005526;28;20037;-69
2022/06/08 13:06:40;;;;;;;0.63;0.30;;;24.30;99.90;;;;;;5014065;28;20036;-69
2022/06/08 13:09:11;;;;;;;2.63;0.40;;;24.20;99.90;;;;;;5017159;28;20037;-69
2022/06/08 13:11:36;;;;;;;1.17;0.57;;;23.80;99.90;;;;;;5019672;28;20092;-69
2022/06/08 13:14:02;;;;;;;1.30;0.30;;;23.80;99.90;;;;;;5007327;28;20365;-68
2022/06/08 13:16:30;;;;;;;1.20;0.20;;;23.80;99.90;;;;;;5015054;28;20027;-69
2022/06/08 13:18:57;;;;;;;0.70;0.20;;;23.40;99.90;;;;;;5016793;28;20427;-69
2022/06/08 13:21:25;;;;;;;1.30;0.13;;;23.30;99.90;;;;;;5008562;28;20057;-70
2022/06/08 13:23:52;;;;;;;1.67;0.52;;;23.40;99.90;;;;;;5003523;28;20033;-70
2022/06/08 13:26:21;;;;;;;2.55;0.30;;;23.40;99.90;;;;;;4999632;28;20469;-71